createdAt,value
2019-02-17T00:01:35.391Z,75.40
2019-02-17T00:04:08.313Z,75.60
2019-02-17T00:06:39.295Z,76.40
2019-02-17T00:09:13.277Z,75.80
2019-02-17T00:11:44.293Z,78.37
2019-02-17T00:14:15.326Z,75.57
2019-02-17T00:16:47.042Z,81.40
2019-02-17T00:19:17.900Z,83.10
2019-02-17T00:21:48.863Z,84.40
2019-02-17T00:24:19.925Z,88.10
2019-02-17T00:26:51.442Z,86.37
2019-02-17T00:29:22.113Z,86.93
2019-02-17T00:31:53.193Z,90.63
2019-02-17T00:34:23.814Z,90.90
2019-02-17T00:36:55.061Z,88.87
2019-02-17T00:39:25.884Z,88.27
2019-02-17T00:41:56.744Z,86.93
2019-02-17T00:44:27.465Z,94.20
2019-02-17T00:46:58.981Z,87.80
2019-02-17T00:49:29.675Z,93.70
2019-02-17T00:52:00.478Z,91.10
2019-02-17T00:54:31.340Z,90.63
2019-02-17T00:57:02.477Z,93.30
2019-02-17T00:59:33.280Z,90.10
2019-02-17T01:02:04.354Z,83.87
2019-02-17T01:04:36.902Z,91.40
2019-02-17T01:07:08.903Z,93.63
2019-02-17T01:09:39.709Z,87.90
2019-02-17T01:12:10.706Z,79.93
2019-02-17T01:14:41.699Z,87.73
2019-02-17T01:17:12.915Z,85.50
2019-02-17T01:19:44.105Z,85.33
2019-02-17T01:22:15.063Z,86.40
2019-02-17T01:24:45.829Z,89.67
2019-02-17T01:27:16.945Z,87.70
2019-02-17T01:29:47.665Z,94.00
2019-02-17T01:32:18.389Z,94.37
2019-02-17T01:34:52.243Z,92.10
2019-02-17T01:37:22.839Z,87.43
2019-02-17T01:39:56.911Z,91.23
2019-02-17T01:42:27.860Z,91.00
2019-02-17T01:44:58.479Z,88.83
2019-02-17T01:47:30.411Z,90.90
2019-02-17T01:50:01.923Z,92.40
2019-02-17T01:52:34.155Z,87.63
2019-02-17T01:55:06.240Z,93.67
2019-02-17T01:57:37.436Z,96.57
2019-02-17T02:00:10.191Z,96.57
2019-02-17T02:02:41.195Z,95.60
2019-02-17T02:05:12.733Z,93.70
2019-02-17T02:07:48.220Z,96.47
2019-02-17T02:10:19.101Z,91.90
2019-02-17T02:12:50.087Z,94.87
2019-02-17T02:15:20.870Z,98.20
2019-02-17T02:17:51.540Z,97.20
2019-02-17T02:20:22.522Z,97.43
2019-02-17T02:22:53.738Z,97.30
2019-02-17T02:25:24.867Z,98.90
2019-02-17T02:27:56.028Z,105.80
2019-02-17T02:30:27.329Z,103.87
2019-02-17T02:33:00.027Z,98.80
2019-02-17T02:35:30.741Z,100.27
2019-02-17T02:38:01.581Z,97.90
2019-02-17T02:40:32.347Z,93.80
2019-02-17T02:43:03.927Z,97.80
2019-02-17T02:45:35.383Z,96.33
2019-02-17T02:48:06.617Z,100.83
2019-02-17T02:50:38.620Z,102.40
2019-02-17T02:53:11.105Z,97.57
2019-02-17T02:55:42.210Z,98.07
2019-02-17T02:58:13.640Z,99.20
2019-02-17T03:00:44.828Z,91.90
2019-02-17T03:03:16.154Z,96.20
2019-02-17T03:06:09.686Z,98.07
2019-02-17T03:08:40.497Z,93.83
2019-02-17T03:11:12.056Z,98.67
2019-02-17T03:13:43.242Z,90.50
2019-02-17T03:16:14.801Z,92.07
2019-02-17T03:18:46.102Z,98.03
2019-02-17T03:21:18.145Z,94.83
2019-02-17T03:23:49.518Z,95.00
2019-02-17T03:26:20.515Z,92.70
2019-02-17T03:28:52.416Z,97.37
2019-02-17T03:31:23.473Z,96.67
2019-02-17T03:33:55.063Z,95.17
2019-02-17T03:36:28.166Z,94.30
2019-02-17T03:38:59.700Z,95.00
2019-02-17T03:41:31.280Z,95.67
2019-02-17T03:44:02.934Z,99.27
2019-02-17T03:46:33.740Z,97.77
2019-02-17T03:49:05.100Z,102.67
2019-02-17T03:51:36.698Z,93.27
2019-02-17T03:54:07.631Z,97.40
2019-02-17T03:56:38.784Z,94.40
2019-02-17T03:59:10.059Z,95.83
2019-02-17T04:01:41.074Z,96.10
2019-02-17T04:04:12.035Z,96.27
2019-02-17T04:06:43.088Z,99.50
2019-02-17T04:09:13.998Z,96.67
2019-02-17T04:11:44.687Z,97.90
2019-02-17T04:14:15.759Z,100.97
2019-02-17T04:16:46.511Z,100.20
2019-02-17T04:19:17.258Z,100.50
2019-02-17T04:21:49.219Z,98.70
2019-02-17T04:24:19.843Z,100.17
2019-02-17T04:26:51.169Z,95.50
2019-02-17T04:29:23.573Z,97.60
2019-02-17T04:31:57.759Z,97.77
2019-02-17T04:34:28.246Z,100.27
2019-02-17T04:36:58.804Z,96.07
2019-02-17T04:39:29.553Z,95.80
2019-02-17T04:42:00.909Z,99.63
2019-02-17T04:44:31.962Z,95.80
2019-02-17T04:47:03.774Z,98.97
2019-02-17T04:49:35.510Z,93.80
2019-02-17T04:52:06.482Z,97.53
2019-02-17T04:54:37.543Z,94.57
2019-02-17T04:57:08.280Z,95.70
2019-02-17T04:59:39.244Z,95.27
2019-02-17T05:02:10.055Z,94.70
2019-02-17T05:04:40.903Z,94.77
2019-02-17T05:07:12.019Z,96.80
2019-02-17T05:09:43.789Z,97.07
2019-02-17T05:12:14.678Z,99.90
2019-02-17T05:14:45.859Z,97.33
2019-02-17T05:17:16.685Z,103.87
2019-02-17T05:19:47.941Z,99.57
2019-02-17T05:22:19.291Z,97.40
2019-02-17T05:24:50.623Z,98.17
2019-02-17T05:27:21.178Z,94.07
2019-02-17T05:29:51.943Z,96.97
2019-02-17T05:32:22.939Z,94.63
2019-02-17T05:34:53.823Z,88.07
2019-02-17T05:37:24.651Z,90.77
2019-02-17T05:39:57.501Z,90.30
2019-02-17T05:42:28.208Z,91.47
2019-02-17T05:44:58.777Z,94.33
2019-02-17T05:47:29.803Z,93.10
2019-02-17T05:50:02.145Z,96.50
2019-02-17T05:52:32.866Z,96.70
2019-02-17T05:55:04.139Z,97.60
2019-02-17T05:57:35.959Z,102.47
2019-02-17T06:00:08.245Z,102.27
2019-02-17T06:02:39.797Z,106.53
2019-02-17T06:05:11.365Z,99.87
2019-02-17T06:07:42.258Z,102.07
2019-02-17T06:10:12.927Z,104.40
2019-02-17T06:12:43.927Z,109.07
2019-02-17T06:15:14.737Z,109.07
2019-02-17T06:17:45.822Z,111.37
2019-02-17T06:20:16.657Z,106.57
2019-02-17T06:22:48.039Z,104.20
2019-02-17T06:25:19.475Z,107.03
2019-02-17T06:27:51.223Z,107.20
2019-02-17T06:30:23.502Z,110.50
2019-02-17T06:32:54.481Z,125.10
2019-02-17T06:35:25.838Z,112.57
2019-02-17T06:37:56.986Z,117.43
2019-02-17T06:40:27.927Z,106.03
2019-02-17T06:42:58.888Z,108.33
2019-02-17T06:45:29.753Z,111.50
2019-02-17T06:48:01.139Z,113.10
2019-02-17T06:50:32.942Z,114.07
2019-02-17T06:53:04.463Z,112.70
2019-02-17T06:55:43.838Z,114.90
2019-02-17T06:58:15.357Z,116.00
2019-02-17T07:00:49.274Z,115.67
2019-02-17T07:03:20.003Z,108.97
2019-02-17T07:06:10.143Z,109.17
2019-02-17T07:08:40.854Z,102.50
2019-02-17T07:11:16.921Z,103.07
2019-02-17T07:13:48.115Z,103.63
2019-02-17T07:16:20.453Z,105.70
2019-02-17T07:18:51.791Z,105.40
2019-02-17T07:21:23.985Z,107.40
2019-02-17T07:23:54.699Z,110.57
2019-02-17T07:26:25.624Z,107.33
2019-02-17T07:28:56.608Z,106.53
2019-02-17T07:31:34.656Z,109.27
2019-02-17T07:34:01.260Z,105.77
2019-02-17T07:36:31.873Z,101.53
2019-02-17T07:39:02.869Z,93.80
2019-02-17T07:41:34.594Z,103.83
2019-02-17T07:44:05.389Z,105.53
2019-02-17T07:46:36.343Z,103.53
2019-02-17T07:49:06.845Z,103.80
2019-02-17T07:51:40.706Z,100.20
2019-02-17T07:54:11.284Z,98.70
2019-02-17T07:56:43.079Z,99.33
2019-02-17T07:59:15.179Z,96.67
2019-02-17T08:01:45.827Z,97.17
2019-02-17T08:04:16.581Z,96.80
2019-02-17T08:06:47.841Z,97.90
2019-02-17T08:09:19.459Z,100.90
2019-02-17T08:11:51.727Z,93.27
2019-02-17T08:14:27.112Z,78.10
2019-02-17T08:16:57.864Z,75.97
2019-02-17T08:19:28.730Z,54.37
2019-02-17T08:21:59.431Z,57.77
2019-02-17T08:24:30.430Z,85.20
2019-02-17T08:27:04.664Z,90.20
2019-02-17T08:29:36.107Z,106.43
2019-02-17T08:32:06.796Z,100.60
2019-02-17T08:34:39.078Z,104.53
2019-02-17T08:37:10.246Z,101.90
2019-02-17T08:39:41.050Z,102.10
2019-02-17T08:42:11.874Z,107.70
2019-02-17T08:44:43.744Z,108.90
2019-02-17T08:47:17.839Z,95.47
2019-02-17T08:49:50.593Z,90.87
2019-02-17T08:52:21.267Z,90.00
2019-02-17T08:54:51.944Z,84.40
2019-02-17T08:57:23.364Z,89.20
2019-02-17T08:59:54.359Z,84.23
2019-02-17T09:02:25.464Z,79.33
2019-02-17T09:04:59.386Z,70.80
2019-02-17T09:07:30.108Z,62.60
2019-02-17T09:10:01.089Z,65.50
2019-02-17T09:12:32.079Z,56.10
2019-02-17T09:15:03.739Z,50.90
2019-02-17T09:17:34.850Z,44.07
2019-02-17T09:20:07.936Z,45.57
2019-02-17T09:22:39.199Z,47.70
2019-02-17T09:25:11.151Z,45.67
2019-02-17T09:27:42.198Z,44.80
2019-02-17T09:30:16.244Z,50.30
2019-02-17T09:32:49.111Z,48.97
2019-02-17T09:35:20.016Z,50.30
2019-02-17T09:37:50.776Z,50.03
2019-02-17T09:40:22.024Z,48.47
2019-02-17T09:42:54.462Z,48.87
2019-02-17T09:45:25.467Z,43.20
2019-02-17T09:47:56.684Z,42.53
2019-02-17T09:50:29.994Z,41.27
2019-02-17T09:53:02.272Z,45.10
2019-02-17T09:55:33.498Z,43.33
2019-02-17T09:58:04.438Z,43.60
2019-02-17T10:00:35.313Z,41.97
2019-02-17T10:03:06.472Z,41.90
2019-02-17T10:05:37.684Z,36.40
2019-02-17T10:08:09.272Z,37.50
2019-02-17T10:10:40.391Z,33.97
2019-02-17T10:13:11.133Z,32.27
2019-02-17T10:15:42.336Z,32.10
2019-02-17T10:18:13.864Z,30.20
2019-02-17T10:20:44.847Z,31.20
2019-02-17T10:23:15.596Z,30.90
2019-02-17T10:25:46.431Z,29.00
2019-02-17T10:28:17.314Z,28.63
2019-02-17T10:30:48.153Z,29.47
2019-02-17T10:33:19.363Z,28.90
2019-02-17T10:35:50.776Z,30.40
2019-02-17T10:38:21.596Z,28.10
2019-02-17T10:40:52.834Z,28.40
2019-02-17T10:43:23.733Z,29.40
2019-02-17T10:45:55.547Z,27.47
2019-02-17T10:48:26.220Z,27.70
2019-02-17T10:50:56.996Z,28.60
2019-02-17T10:53:28.871Z,28.03
2019-02-17T10:55:59.690Z,27.60
2019-02-17T10:58:30.486Z,28.50
2019-02-17T11:01:06.001Z,28.73
2019-02-17T11:03:36.887Z,28.47
2019-02-17T11:06:07.725Z,30.33
2019-02-17T11:08:38.489Z,27.70
2019-02-17T11:11:10.512Z,27.87
2019-02-17T11:13:41.245Z,27.20
2019-02-17T11:16:12.284Z,26.27
2019-02-17T11:18:43.283Z,27.53
2019-02-17T11:21:14.285Z,26.40
2019-02-17T11:23:45.231Z,27.40
2019-02-17T11:26:16.392Z,27.93
2019-02-17T11:28:47.265Z,25.93
2019-02-17T11:31:18.551Z,26.03
2019-02-17T11:33:49.136Z,25.47
2019-02-17T11:36:20.526Z,25.87
2019-02-17T11:38:52.345Z,25.23
2019-02-17T11:41:23.187Z,26.17
2019-02-17T11:43:53.830Z,25.30
2019-02-17T11:46:24.663Z,26.27
2019-02-17T11:48:55.503Z,26.40
2019-02-17T11:51:26.860Z,25.60
2019-02-17T11:53:57.554Z,25.60
2019-02-17T11:56:28.566Z,25.33
2019-02-17T11:58:59.701Z,27.50
2019-02-17T12:01:30.727Z,25.90
2019-02-17T12:04:01.756Z,26.27
2019-02-17T12:06:32.819Z,26.10
2019-02-17T12:09:03.824Z,25.60
2019-02-17T12:11:34.946Z,28.63
2019-02-17T12:14:06.866Z,26.57
2019-02-17T12:16:38.913Z,25.63
2019-02-17T12:19:11.351Z,27.40
2019-02-17T12:22:13.940Z,28.53
2019-02-17T12:25:10.320Z,26.60
2019-02-17T12:27:53.386Z,26.30
2019-02-17T12:30:25.622Z,27.93
2019-02-17T12:32:56.863Z,24.23
2019-02-17T12:35:27.621Z,26.43
2019-02-17T12:37:58.253Z,33.43
2019-02-17T12:40:30.041Z,31.17
2019-02-17T12:43:00.856Z,26.67
2019-02-17T12:45:31.668Z,27.60
2019-02-17T12:48:02.394Z,29.40
2019-02-17T12:50:33.138Z,34.37
2019-02-17T12:53:04.436Z,25.60
2019-02-17T12:55:36.389Z,29.30
2019-02-17T12:58:07.170Z,25.23
2019-02-17T13:00:37.961Z,25.53
2019-02-17T13:03:10.287Z,28.77
2019-02-17T13:05:41.640Z,27.50
2019-02-17T13:08:13.624Z,26.93
2019-02-17T13:10:45.268Z,28.67
2019-02-17T13:13:17.206Z,26.97
2019-02-17T13:15:48.359Z,28.13
2019-02-17T13:18:19.340Z,27.10
2019-02-17T13:20:50.037Z,25.70
2019-02-17T13:23:21.358Z,27.77
2019-02-17T13:25:52.507Z,26.13
2019-02-17T13:28:23.430Z,25.47
2019-02-17T13:30:54.623Z,29.40
2019-02-17T13:33:26.565Z,34.67
2019-02-17T13:35:57.351Z,28.20
2019-02-17T13:38:28.348Z,25.67
2019-02-17T13:40:59.064Z,27.63
2019-02-17T13:43:29.869Z,28.40
2019-02-17T13:46:00.550Z,26.23
2019-02-17T13:48:32.460Z,26.93
2019-02-17T13:51:03.558Z,28.80
2019-02-17T13:53:35.378Z,28.27
2019-02-17T13:56:06.371Z,27.23
2019-02-17T13:58:37.664Z,27.20
2019-02-17T14:01:10.595Z,26.83
2019-02-17T14:03:48.569Z,25.20
2019-02-17T14:06:15.547Z,27.30
2019-02-17T14:08:45.996Z,27.97
2019-02-17T14:11:17.564Z,27.73
2019-02-17T14:13:48.526Z,25.10
2019-02-17T14:16:19.549Z,26.90
2019-02-17T14:18:53.832Z,26.67
2019-02-17T14:21:24.958Z,26.03
2019-02-17T14:23:55.715Z,26.77
2019-02-17T14:26:26.569Z,25.87
2019-02-17T14:28:58.004Z,26.90
2019-02-17T14:31:28.739Z,26.77
2019-02-17T14:33:59.806Z,25.93
2019-02-17T14:36:30.990Z,25.10
2019-02-17T14:39:01.913Z,24.63
2019-02-17T14:41:33.225Z,26.70
2019-02-17T14:44:04.876Z,27.30
2019-02-17T14:46:35.959Z,26.83
2019-02-17T14:49:07.370Z,25.33
2019-02-17T14:51:38.650Z,25.03
2019-02-17T14:54:09.472Z,27.07
2019-02-17T14:56:40.953Z,24.87
2019-02-17T14:59:12.511Z,26.33
2019-02-17T15:01:43.902Z,26.23
2019-02-17T15:04:14.867Z,26.20
2019-02-17T15:06:46.521Z,24.70
2019-02-17T15:09:17.691Z,25.10
2019-02-17T15:11:48.500Z,24.90
2019-02-17T15:14:19.860Z,24.80
2019-02-17T15:16:52.043Z,24.33
2019-02-17T15:19:23.393Z,25.00
2019-02-17T15:21:54.111Z,24.70
2019-02-17T15:24:25.385Z,25.93
2019-02-17T15:26:56.297Z,25.53
2019-02-17T15:29:27.762Z,25.20
2019-02-17T15:31:59.559Z,24.47
2019-02-17T15:34:31.316Z,26.80
2019-02-17T15:37:03.231Z,26.43
2019-02-17T15:39:37.410Z,26.37
2019-02-17T15:42:09.041Z,24.20
2019-02-17T15:44:40.462Z,23.87
2019-02-17T15:47:11.329Z,26.70
2019-02-17T15:49:42.586Z,27.30
2019-02-17T15:52:13.924Z,28.97
2019-02-17T15:54:47.544Z,27.60
2019-02-17T15:57:18.593Z,27.80
2019-02-17T15:59:49.570Z,26.70
2019-02-17T16:02:21.012Z,25.27
2019-02-17T16:04:55.565Z,24.93
2019-02-17T16:07:26.601Z,24.33
2019-02-17T16:09:58.748Z,26.60
2019-02-17T16:12:30.275Z,26.73
2019-02-17T16:15:01.871Z,26.77
2019-02-17T16:17:33.632Z,24.13
2019-02-17T16:20:05.495Z,26.37
2019-02-17T16:22:38.063Z,26.23
2019-02-17T16:25:09.331Z,27.30
2019-02-17T16:27:40.539Z,28.90
2019-02-17T16:30:18.012Z,29.00
2019-02-17T16:32:49.873Z,28.27
2019-02-17T16:35:22.309Z,30.40
2019-02-17T16:37:54.041Z,30.30
2019-02-17T16:40:26.135Z,28.37
2019-02-17T16:42:58.743Z,31.00
2019-02-17T16:45:31.589Z,26.73
2019-02-17T16:48:03.031Z,29.17
2019-02-17T16:50:35.276Z,29.07
2019-02-17T16:53:08.596Z,29.07
2019-02-17T16:55:40.127Z,27.90
2019-02-17T16:58:12.195Z,27.80
2019-02-17T17:00:44.171Z,33.00
2019-02-17T17:03:16.347Z,30.03
2019-02-17T17:05:47.476Z,32.97
2019-02-17T17:08:20.181Z,39.70
2019-02-17T17:10:52.734Z,32.00
2019-02-17T17:13:24.660Z,30.60
2019-02-17T17:15:56.794Z,33.90
2019-02-17T17:18:29.520Z,34.77
2019-02-17T17:21:01.393Z,46.30
2019-02-17T17:23:33.306Z,37.20
2019-02-17T17:26:05.491Z,34.40
2019-02-17T17:28:36.831Z,35.97
2019-02-17T17:31:08.953Z,33.77
2019-02-17T17:33:40.873Z,33.67
2019-02-17T17:36:12.718Z,35.70
2019-02-17T17:38:46.917Z,35.30
2019-02-17T17:41:19.228Z,34.60
2019-02-17T17:43:51.425Z,36.13
2019-02-17T17:46:23.817Z,33.50
2019-02-17T17:48:56.267Z,33.60
2019-02-17T17:51:28.712Z,32.13
2019-02-17T17:54:00.837Z,33.77
2019-02-17T17:56:33.161Z,33.90
2019-02-17T17:59:05.093Z,34.53
2019-02-17T18:01:37.977Z,38.20
2019-02-17T18:04:09.795Z,36.07
2019-02-17T18:06:41.984Z,42.17
2019-02-17T18:09:14.049Z,34.40
2019-02-17T18:11:47.003Z,33.60
2019-02-17T18:14:20.425Z,42.47
2019-02-17T18:16:52.735Z,46.20
2019-02-17T18:19:25.091Z,46.93
2019-02-17T18:21:57.151Z,53.27
2019-02-17T18:24:29.631Z,43.30
2019-02-17T18:27:01.197Z,43.40
2019-02-17T18:29:33.115Z,41.33
2019-02-17T18:32:04.672Z,46.87
2019-02-17T18:34:36.896Z,41.60
2019-02-17T18:37:07.947Z,65.57
2019-02-17T18:39:39.604Z,70.27
2019-02-17T18:42:11.760Z,58.67
2019-02-17T18:44:43.377Z,68.77
2019-02-17T18:47:15.392Z,57.77
2019-02-17T18:49:48.816Z,60.30
2019-02-17T18:52:21.226Z,58.77
2019-02-17T18:54:53.119Z,54.37
2019-02-17T18:57:26.833Z,55.10
2019-02-17T18:59:58.937Z,56.27
2019-02-17T19:02:32.302Z,76.03
2019-02-17T19:05:04.186Z,79.80
2019-02-17T19:07:35.874Z,89.57
2019-02-17T19:10:08.823Z,88.33
2019-02-17T19:12:41.347Z,71.80
2019-02-17T19:15:14.959Z,73.00
2019-02-17T19:17:47.379Z,73.50
2019-02-17T19:20:21.503Z,73.30
2019-02-17T19:22:53.601Z,77.40
2019-02-17T19:25:24.989Z,91.83
2019-02-17T19:27:56.846Z,75.00
2019-02-17T19:30:29.066Z,81.70
2019-02-17T19:33:01.589Z,77.97
2019-02-17T19:35:41.599Z,78.97
2019-02-17T19:38:07.740Z,80.10
2019-02-17T19:40:39.554Z,100.20
2019-02-17T19:43:11.359Z,87.27
2019-02-17T19:45:42.954Z,83.07
2019-02-17T19:48:17.744Z,81.67
2019-02-17T19:50:50.639Z,86.60
2019-02-17T19:53:23.107Z,93.90
2019-02-17T19:55:56.356Z,90.60
2019-02-17T19:58:28.266Z,101.87
2019-02-17T20:01:00.506Z,96.67
2019-02-17T20:03:39.375Z,90.67
2019-02-17T20:06:11.800Z,93.47
2019-02-17T20:08:43.705Z,87.27
2019-02-17T20:11:24.482Z,83.97
2019-02-17T20:13:56.660Z,93.40
2019-02-17T20:16:30.845Z,82.93
2019-02-17T20:19:03.033Z,92.33
2019-02-17T20:21:34.796Z,86.30
2019-02-17T20:24:08.116Z,85.97
2019-02-17T20:26:41.664Z,85.63
2019-02-17T20:29:13.457Z,83.90
2019-02-17T20:31:47.086Z,86.90
2019-02-17T20:34:20.672Z,86.33
2019-02-17T20:36:55.221Z,87.90
2019-02-17T20:39:27.586Z,86.97
2019-02-17T20:41:59.695Z,87.47
2019-02-17T20:44:39.723Z,86.77
2019-02-17T20:47:11.671Z,86.77
2019-02-17T20:49:44.554Z,89.37
2019-02-17T20:52:47.069Z,94.40
2019-02-17T20:55:25.303Z,91.40
2019-02-17T20:58:05.850Z,83.43
2019-02-17T21:00:38.601Z,85.70
2019-02-17T21:03:20.171Z,93.23
2019-02-17T21:05:57.943Z,83.60
2019-02-17T21:08:34.991Z,88.17
2019-02-17T21:11:08.698Z,88.60
2019-02-17T21:13:41.263Z,91.43
2019-02-17T21:16:14.529Z,90.70
2019-02-17T21:18:50.187Z,88.60
2019-02-17T21:21:23.171Z,89.27
2019-02-17T21:23:55.998Z,88.43
2019-02-17T21:26:27.849Z,91.77
2019-02-17T21:28:58.705Z,87.57
2019-02-17T21:31:31.568Z,90.03
2019-02-17T21:34:03.745Z,93.90
2019-02-17T21:36:35.034Z,91.20
2019-02-17T21:39:07.386Z,91.60
2019-02-17T21:41:38.945Z,95.13
2019-02-17T21:44:10.676Z,93.07
2019-02-17T21:46:42.148Z,96.17
2019-02-17T21:49:13.637Z,104.33
2019-02-17T21:51:46.032Z,93.10
2019-02-17T21:54:17.348Z,91.50
2019-02-17T21:56:49.027Z,90.63
2019-02-17T21:59:20.110Z,90.40
2019-02-17T22:01:50.901Z,92.60
2019-02-17T22:04:22.230Z,105.63
2019-02-17T22:06:53.306Z,105.07
2019-02-17T22:09:24.362Z,109.50
2019-02-17T22:11:55.717Z,108.77
2019-02-17T22:14:27.065Z,118.63
2019-02-17T22:16:59.104Z,116.57
2019-02-17T22:19:29.798Z,117.77
2019-02-17T22:22:01.814Z,115.23
2019-02-17T22:24:33.661Z,116.87
2019-02-17T22:27:04.675Z,113.77
2019-02-17T22:29:35.718Z,111.27
2019-02-17T22:32:06.788Z,107.73
2019-02-17T22:34:41.577Z,108.53
2019-02-17T22:37:13.335Z,116.27
2019-02-17T22:39:44.156Z,109.50
2019-02-17T22:42:14.748Z,113.80
2019-02-17T22:44:45.619Z,108.17
2019-02-17T22:47:16.567Z,79.83
2019-02-17T22:49:47.637Z,84.73
2019-02-17T22:52:18.353Z,83.87
2019-02-17T22:54:49.074Z,86.33
2019-02-17T22:57:20.101Z,83.57
2019-02-17T22:59:51.105Z,91.67
2019-02-17T23:02:22.748Z,98.47
2019-02-17T23:04:53.666Z,104.30
2019-02-17T23:07:24.338Z,105.47
2019-02-17T23:09:55.025Z,103.40
2019-02-17T23:12:27.080Z,105.27
2019-02-17T23:14:58.381Z,105.47
2019-02-17T23:17:29.246Z,108.67
2019-02-17T23:20:00.268Z,115.10
2019-02-17T23:22:31.858Z,111.80
2019-02-17T23:25:03.222Z,113.30
2019-02-17T23:27:33.906Z,108.63
2019-02-17T23:30:04.685Z,112.53
2019-02-17T23:32:36.631Z,115.40
2019-02-17T23:35:09.755Z,110.20
2019-02-17T23:37:41.141Z,104.77
2019-02-17T23:40:11.976Z,109.97
2019-02-17T23:42:43.153Z,106.67
2019-02-17T23:45:15.041Z,107.40
2019-02-17T23:47:46.286Z,109.40
2019-02-17T23:50:17.567Z,102.53
2019-02-17T23:52:49.063Z,101.27
2019-02-17T23:55:19.943Z,103.30
2019-02-17T23:57:51.382Z,105.27
